createdAt,value
2019-02-27T00:01:25.156Z,84.15
2019-02-27T00:03:55.459Z,85.20
2019-02-27T00:06:25.833Z,84.76
2019-02-27T00:08:57.837Z,84.93
2019-02-27T00:11:28.202Z,84.78
2019-02-27T00:13:58.574Z,84.78
2019-02-27T00:16:28.945Z,84.61
2019-02-27T00:18:59.398Z,84.55
2019-02-27T00:21:29.779Z,84.29
2019-02-27T00:24:00.086Z,84.81
2019-02-27T00:26:30.468Z,85.42
2019-02-27T00:29:00.781Z,85.44
2019-02-27T00:31:31.131Z,84.80
2019-02-27T00:34:01.434Z,84.82
2019-02-27T00:36:31.780Z,85.07
2019-02-27T00:39:02.073Z,84.88
2019-02-27T00:41:32.411Z,85.17
2019-02-27T00:44:02.723Z,85.31
2019-02-27T00:46:34.069Z,84.30
2019-02-27T00:49:04.361Z,84.66
2019-02-27T00:51:34.812Z,84.57
2019-02-27T00:54:05.115Z,84.36
2019-02-27T00:56:35.446Z,83.87
2019-02-27T00:59:05.749Z,83.53
2019-02-27T01:01:36.081Z,84.09
2019-02-27T01:04:06.350Z,84.41
2019-02-27T01:06:36.677Z,83.79
2019-02-27T01:09:07.636Z,84.27
2019-02-27T01:11:37.981Z,83.67
2019-02-27T01:14:08.286Z,83.64
2019-02-27T01:16:38.630Z,82.82
2019-02-27T01:19:08.919Z,84.01
2019-02-27T01:21:39.264Z,83.81
2019-02-27T01:24:09.501Z,83.62
2019-02-27T01:26:39.859Z,83.85
2019-02-27T01:29:10.162Z,83.38
2019-02-27T01:31:40.502Z,82.98
2019-02-27T01:34:11.339Z,83.13
2019-02-27T01:36:42.263Z,83.27
2019-02-27T01:39:12.568Z,83.17
2019-02-27T01:41:43.101Z,83.24
2019-02-27T01:44:14.233Z,82.82
2019-02-27T01:46:45.601Z,83.20
2019-02-27T01:49:16.746Z,83.24
2019-02-27T01:51:47.412Z,82.90
2019-02-27T01:54:17.716Z,83.15
2019-02-27T01:56:48.174Z,83.68
2019-02-27T01:59:18.468Z,83.29
2019-02-27T02:01:48.921Z,83.26
2019-02-27T02:04:20.317Z,83.13
2019-02-27T02:06:51.279Z,83.38
2019-02-27T02:09:38.234Z,83.49
2019-02-27T02:12:20.031Z,83.09
2019-02-27T02:15:08.437Z,82.58
2019-02-27T02:17:59.613Z,82.96
2019-02-27T02:20:50.781Z,82.51
2019-02-27T02:23:42.000Z,82.60
2019-02-27T02:26:48.386Z,82.53
2019-02-27T02:29:21.763Z,82.40
2019-02-27T02:32:00.810Z,82.33
2019-02-27T02:34:49.137Z,82.69
2019-02-27T02:37:48.138Z,82.01
2019-02-27T02:40:24.492Z,81.91
2019-02-27T02:43:18.718Z,82.31
2019-02-27T02:46:08.613Z,81.88
2019-02-27T02:49:06.281Z,82.09
2019-02-27T02:51:46.288Z,82.08
2019-02-27T02:54:28.639Z,82.12
2019-02-27T02:57:07.776Z,82.59
2019-02-27T02:59:59.444Z,82.22
2019-02-27T03:02:43.661Z,82.48
2019-02-27T03:05:48.531Z,82.38
2019-02-27T03:08:27.766Z,81.67
2019-02-27T03:11:19.015Z,81.48
2019-02-27T03:14:09.138Z,82.09
2019-02-27T03:16:45.248Z,82.01
2019-02-27T03:19:33.480Z,81.55
2019-02-27T03:22:09.520Z,82.40
2019-02-27T03:24:48.966Z,82.16
2019-02-27T03:27:50.900Z,82.01
2019-02-27T03:30:46.955Z,81.36
2019-02-27T03:33:27.214Z,81.81
2019-02-27T03:36:21.549Z,81.61
2019-02-27T03:39:17.515Z,81.45
2019-02-27T03:41:59.337Z,82.30
2019-02-27T03:44:40.846Z,81.04
2019-02-27T03:47:19.799Z,81.56
2019-02-27T03:49:56.878Z,81.68
2019-02-27T03:52:39.242Z,81.80
2019-02-27T03:55:35.143Z,82.34
2019-02-27T03:58:26.799Z,81.50
2019-02-27T04:01:30.027Z,81.12
2019-02-27T04:04:17.262Z,81.62
2019-02-27T04:07:12.845Z,81.96
2019-02-27T04:09:43.288Z,81.21
2019-02-27T04:12:16.607Z,81.16
2019-02-27T04:14:45.765Z,81.47
2019-02-27T04:17:16.181Z,80.70
2019-02-27T04:19:46.651Z,81.43
2019-02-27T04:22:17.169Z,81.45
2019-02-27T04:24:47.627Z,81.53
2019-02-27T04:27:21.184Z,81.32
2019-02-27T04:29:50.121Z,80.91
2019-02-27T04:32:20.528Z,80.72
2019-02-27T04:34:51.002Z,81.16
2019-02-27T04:37:21.378Z,81.41
2019-02-27T04:39:51.860Z,81.02
2019-02-27T04:42:25.369Z,80.69
2019-02-27T04:44:54.461Z,80.70
2019-02-27T04:47:28.656Z,80.48
2019-02-27T04:49:57.962Z,80.71
2019-02-27T04:52:28.350Z,80.82
2019-02-27T04:54:58.684Z,80.50
2019-02-27T04:57:30.787Z,80.26
2019-02-27T05:00:01.387Z,80.56
2019-02-27T05:02:31.744Z,80.46
2019-02-27T05:05:02.184Z,79.76
2019-02-27T05:07:32.610Z,80.14
2019-02-27T05:10:06.863Z,79.72
2019-02-27T05:12:35.188Z,79.34
2019-02-27T05:15:07.559Z,78.68
2019-02-27T05:17:37.963Z,80.07
2019-02-27T05:20:12.439Z,80.17
2019-02-27T05:22:41.373Z,79.45
2019-02-27T05:25:12.051Z,79.12
2019-02-27T05:27:43.785Z,78.59
2019-02-27T05:30:14.215Z,78.85
2019-02-27T05:32:44.557Z,78.50
2019-02-27T05:35:14.997Z,78.76
2019-02-27T05:37:45.406Z,77.98
2019-02-27T05:40:15.878Z,77.89
2019-02-27T05:42:46.284Z,77.25
2019-02-27T05:45:16.733Z,76.07
2019-02-27T05:47:47.070Z,75.66
2019-02-27T05:50:18.477Z,74.84
2019-02-27T05:52:49.682Z,75.04
2019-02-27T05:55:20.043Z,74.53
2019-02-27T05:57:50.642Z,75.90
2019-02-27T06:00:21.980Z,75.26
2019-02-27T06:02:52.358Z,75.62
2019-02-27T06:05:22.827Z,76.08
2019-02-27T06:07:53.238Z,75.24
2019-02-27T06:10:23.785Z,76.67
2019-02-27T06:12:54.282Z,76.01
2019-02-27T06:15:26.067Z,74.35
2019-02-27T06:17:56.820Z,75.04
2019-02-27T06:20:27.231Z,74.72
2019-02-27T06:22:57.687Z,74.42
2019-02-27T06:25:28.100Z,72.89
2019-02-27T06:27:58.567Z,73.90
2019-02-27T06:30:30.771Z,73.50
2019-02-27T06:33:01.125Z,73.81
2019-02-27T06:35:34.184Z,72.47
2019-02-27T06:38:03.715Z,72.66
2019-02-27T06:40:34.127Z,74.10
2019-02-27T06:43:04.581Z,73.99
2019-02-27T06:45:34.993Z,74.51
2019-02-27T06:48:09.438Z,75.21
2019-02-27T06:50:38.524Z,74.57
2019-02-27T06:53:09.045Z,73.54
2019-02-27T06:55:39.475Z,73.77
2019-02-27T06:58:14.452Z,74.05
2019-02-27T07:00:42.178Z,74.50
2019-02-27T07:03:12.649Z,75.21
2019-02-27T07:05:45.504Z,74.59
2019-02-27T07:08:15.263Z,73.41
2019-02-27T07:10:47.122Z,74.35
2019-02-27T07:13:17.578Z,74.93
2019-02-27T07:15:48.797Z,74.40
2019-02-27T07:18:21.167Z,75.03
2019-02-27T07:20:51.603Z,73.32
2019-02-27T07:23:23.695Z,74.13
2019-02-27T07:25:54.342Z,72.46
2019-02-27T07:28:27.917Z,72.97
2019-02-27T07:30:58.342Z,70.21
2019-02-27T07:33:28.820Z,68.45
2019-02-27T07:36:03.153Z,65.86
2019-02-27T07:38:32.965Z,65.80
2019-02-27T07:41:03.371Z,67.70
2019-02-27T07:43:33.709Z,67.33
2019-02-27T07:46:04.133Z,66.54
2019-02-27T07:48:34.576Z,64.57
2019-02-27T07:51:05.875Z,66.29
2019-02-27T07:53:37.786Z,64.45
2019-02-27T07:56:08.077Z,63.30
2019-02-27T07:58:38.512Z,62.22
2019-02-27T08:01:08.830Z,62.95
2019-02-27T08:03:39.130Z,62.01
2019-02-27T08:06:09.518Z,62.33
2019-02-27T08:08:39.867Z,62.47
2019-02-27T08:11:13.259Z,62.40
2019-02-27T08:13:42.603Z,63.13
2019-02-27T08:16:14.977Z,65.15
2019-02-27T08:18:45.380Z,65.88
2019-02-27T08:21:15.705Z,66.08
2019-02-27T08:23:46.399Z,67.62
2019-02-27T08:26:18.416Z,67.56
2019-02-27T08:28:49.024Z,68.42
2019-02-27T08:31:19.351Z,67.81
2019-02-27T08:33:49.730Z,67.93
2019-02-27T08:36:24.518Z,68.74
2019-02-27T08:38:54.993Z,68.96
2019-02-27T08:41:25.398Z,68.54
2019-02-27T08:43:55.897Z,67.84
2019-02-27T08:46:26.284Z,67.52
2019-02-27T08:48:56.661Z,66.52
2019-02-27T08:51:28.039Z,67.62
2019-02-27T08:53:59.907Z,67.59
2019-02-27T08:56:30.805Z,67.69
2019-02-27T08:59:04.985Z,66.81
2019-02-27T09:01:33.334Z,66.23
2019-02-27T09:04:06.102Z,64.91
2019-02-27T09:06:39.054Z,63.48
2019-02-27T09:09:09.492Z,60.82
2019-02-27T09:11:40.697Z,62.02
2019-02-27T09:14:12.027Z,58.00
2019-02-27T09:16:42.560Z,61.63
2019-02-27T09:21:43.510Z,63.28
2019-02-27T09:24:13.855Z,63.10
2019-02-27T09:26:45.749Z,62.05
2019-02-27T09:29:18.757Z,61.66
2019-02-27T09:31:50.990Z,60.02
2019-02-27T09:34:21.751Z,58.47
2019-02-27T09:36:52.199Z,59.98
2019-02-27T09:39:25.041Z,60.31
2019-02-27T09:41:55.374Z,61.15
2019-02-27T09:44:26.204Z,62.80
2019-02-27T09:46:56.616Z,61.68
2019-02-27T09:49:27.087Z,62.15
2019-02-27T09:51:57.673Z,60.97
2019-02-27T09:54:30.770Z,61.20
2019-02-27T09:57:02.853Z,61.54
2019-02-27T09:59:33.396Z,63.09
2019-02-27T10:02:06.345Z,63.45
2019-02-27T10:04:35.998Z,66.82
2019-02-27T10:07:06.418Z,67.96
2019-02-27T10:09:36.884Z,68.66
2019-02-27T10:12:07.291Z,67.99
2019-02-27T10:14:37.761Z,65.16
2019-02-27T10:17:09.199Z,63.44
2019-02-27T10:19:42.225Z,59.75
2019-02-27T10:22:13.581Z,60.09
2019-02-27T10:24:44.313Z,59.16
2019-02-27T10:27:14.845Z,57.48
2019-02-27T10:29:47.892Z,54.75
2019-02-27T10:32:18.332Z,57.29
2019-02-27T10:34:51.019Z,56.49
2019-02-27T10:37:20.892Z,53.78
2019-02-27T10:39:51.466Z,52.01
2019-02-27T10:42:21.796Z,52.66
2019-02-27T10:44:52.242Z,54.22
2019-02-27T10:47:27.245Z,53.89
2019-02-27T10:50:01.753Z,55.66
2019-02-27T10:52:32.865Z,56.36
2019-02-27T10:55:05.834Z,56.85
2019-02-27T10:57:38.569Z,58.81
2019-02-27T11:00:25.906Z,58.44
2019-02-27T11:02:56.651Z,59.50
2019-02-27T11:05:28.914Z,58.33
2019-02-27T11:07:59.344Z,55.50
2019-02-27T11:10:32.493Z,53.96
2019-02-27T11:13:06.877Z,51.31
2019-02-27T11:15:41.109Z,53.63
2019-02-27T11:18:09.745Z,54.28
2019-02-27T11:20:40.485Z,55.16
2019-02-27T11:23:10.829Z,55.64
2019-02-27T11:25:41.358Z,57.19
2019-02-27T11:28:11.675Z,56.57
2019-02-27T11:30:43.114Z,55.15
2019-02-27T11:33:24.828Z,56.35
2019-02-27T11:35:46.550Z,56.91
2019-02-27T11:38:16.990Z,56.88
2019-02-27T11:40:47.464Z,56.59
2019-02-27T11:43:17.875Z,57.23
2019-02-27T11:45:48.321Z,56.74
2019-02-27T11:48:20.370Z,58.05
2019-02-27T11:50:50.966Z,57.37
2019-02-27T11:53:22.350Z,57.92
2019-02-27T11:56:04.143Z,58.18
2019-02-27T11:58:45.544Z,57.90
2019-02-27T12:01:16.143Z,56.92
2019-02-27T12:03:46.588Z,55.03
2019-02-27T12:06:18.502Z,56.11
2019-02-27T12:08:49.014Z,55.70
2019-02-27T12:11:19.362Z,56.91
2019-02-27T12:17:13.386Z,54.95
2019-02-27T12:19:45.219Z,56.62
2019-02-27T12:22:19.190Z,55.75
2019-02-27T12:24:52.871Z,56.45
2019-02-27T12:27:47.435Z,55.38
2019-02-27T12:29:55.871Z,56.33
2019-02-27T12:32:26.253Z,55.22
2019-02-27T12:34:59.619Z,55.91
2019-02-27T12:37:34.062Z,56.31
2019-02-27T12:40:02.520Z,57.26
2019-02-27T12:42:37.292Z,58.77
2019-02-27T12:45:07.153Z,59.15
2019-02-27T12:47:40.611Z,59.48
2019-02-27T12:50:12.397Z,59.66
2019-02-27T12:52:47.937Z,59.81
2019-02-27T12:57:22.177Z,58.94
2019-02-27T12:59:54.778Z,58.51
2019-02-27T13:02:35.218Z,58.19
2019-02-27T13:04:57.974Z,58.32
2019-02-27T13:07:28.364Z,59.37
2019-02-27T13:09:59.437Z,59.42
2019-02-27T13:12:29.978Z,59.45
2019-02-27T13:15:00.507Z,59.26
2019-02-27T13:17:31.132Z,58.50
2019-02-27T13:20:11.708Z,57.92
2019-02-27T13:22:42.919Z,59.19
2019-02-27T13:25:15.182Z,58.29
2019-02-27T13:27:51.736Z,58.28
2019-02-27T13:30:31.069Z,58.99
2019-02-27T13:33:04.608Z,58.93
2019-02-27T13:35:35.074Z,59.00
2019-02-27T13:38:05.684Z,58.58
2019-02-27T13:40:36.367Z,59.15
2019-02-27T13:43:06.835Z,58.85
2019-02-27T13:45:39.995Z,59.46
2019-02-27T13:48:10.387Z,60.68
2019-02-27T13:50:40.815Z,60.37
2019-02-27T13:53:11.261Z,60.09
2019-02-27T13:55:41.709Z,60.91
2019-02-27T13:58:13.629Z,61.08
2019-02-27T14:00:44.285Z,61.38
2019-02-27T14:03:16.044Z,61.47
2019-02-27T14:05:46.559Z,61.33
2019-02-27T14:08:16.857Z,62.48
2019-02-27T14:10:47.314Z,62.80
2019-02-27T14:13:17.724Z,63.62
2019-02-27T14:15:48.942Z,64.70
2019-02-27T14:18:19.876Z,65.20
2019-02-27T14:20:50.396Z,66.32
2019-02-27T14:23:20.712Z,66.93
2019-02-27T14:25:51.738Z,67.34
2019-02-27T14:28:23.606Z,67.97
2019-02-27T14:30:57.068Z,68.63
2019-02-27T14:33:27.522Z,68.22
2019-02-27T14:35:57.949Z,68.86
2019-02-27T14:38:28.356Z,67.85
2019-02-27T14:41:14.358Z,69.22
2019-02-27T14:45:25.864Z,68.53
2019-02-27T14:47:56.337Z,69.39
2019-02-27T14:50:26.872Z,69.00
2019-02-27T14:52:57.493Z,68.95
2019-02-27T14:55:27.905Z,69.48
2019-02-27T14:57:58.408Z,69.05
2019-02-27T15:00:32.453Z,68.48
2019-02-27T15:03:04.491Z,69.58
2019-02-27T15:05:37.115Z,69.26
2019-02-27T15:08:09.731Z,69.75
2019-02-27T15:10:41.655Z,70.00
2019-02-27T15:13:12.364Z,70.04
2019-02-27T15:15:43.723Z,68.86
2019-02-27T15:18:15.846Z,69.59
2019-02-27T15:20:46.477Z,70.76
2019-02-27T15:23:17.099Z,71.16
2019-02-27T15:25:47.553Z,72.15
2019-02-27T15:28:18.242Z,72.36
2019-02-27T15:30:50.253Z,71.92
2019-02-27T15:33:26.660Z,71.14
2019-02-27T15:36:00.109Z,71.14
2019-02-27T15:38:31.571Z,71.55
2019-02-27T15:41:03.227Z,70.91
2019-02-27T15:43:45.247Z,71.36
2019-02-27T15:46:16.302Z,71.91
2019-02-27T15:48:46.830Z,72.07
2019-02-27T15:51:18.343Z,71.24
2019-02-27T15:53:50.167Z,72.40
2019-02-27T15:56:21.230Z,73.20
2019-02-27T15:58:51.678Z,72.37
2019-02-27T16:01:24.805Z,71.98
2019-02-27T16:03:55.214Z,71.07
2019-02-27T16:06:26.447Z,70.10
2019-02-27T16:08:58.316Z,70.23
